createdAt,value
2022-10-05T00:02:03.714Z,99420.72
2022-10-05T00:04:53.304Z,99419.31
2022-10-05T00:07:38.494Z,99421.34
2022-10-05T00:10:24.136Z,99426.91
2022-10-05T00:13:19.130Z,99429.91
2022-10-05T00:16:10.096Z,99445.91
2022-10-05T00:18:55.280Z,99452.78
2022-10-05T00:21:40.157Z,99448.06
2022-10-05T00:24:25.230Z,99457.34
2022-10-05T00:27:17.482Z,99451.81
2022-10-05T00:30:12.917Z,99461.28
2022-10-05T00:32:59.877Z,99457.34
2022-10-05T00:35:45.122Z,99460.88
2022-10-05T00:38:30.154Z,99461.47
2022-10-05T00:41:50.308Z,99459.66
2022-10-05T00:45:08.409Z,99452.53
2022-10-05T00:48:20.707Z,99449.75
2022-10-05T00:51:26.605Z,99452.50
2022-10-05T00:54:38.461Z,99459.63
2022-10-05T00:57:47.155Z,99455.06
2022-10-05T01:00:36.486Z,99465.91
2022-10-05T01:03:47.495Z,99472.41
2022-10-05T01:06:55.101Z,99477.72
2022-10-05T01:10:03.986Z,99475.94
2022-10-05T01:13:14.016Z,99485.03
2022-10-05T01:16:23.184Z,99490.72
2022-10-05T01:19:27.119Z,99490.31
2022-10-05T01:22:33.878Z,99492.72
2022-10-05T01:25:30.680Z,99493.47
2022-10-05T01:28:23.821Z,99488.34
2022-10-05T01:31:28.257Z,99491.69
2022-10-05T01:34:18.962Z,99495.06
2022-10-05T01:37:03.997Z,99513.59
2022-10-05T01:40:11.498Z,99514.78
2022-10-05T01:42:57.984Z,99517.94
2022-10-05T01:45:56.884Z,99515.16
2022-10-05T01:49:05.506Z,99526.22
2022-10-05T01:52:05.574Z,99522.44
2022-10-05T01:55:12.710Z,99510.63
2022-10-05T01:58:21.129Z,99519.69
2022-10-05T02:01:17.936Z,99521.47
2022-10-05T02:04:29.539Z,99516.91
2022-10-05T02:07:30.429Z,99529.53
2022-10-05T02:10:47.642Z,99521.66
2022-10-05T02:13:39.991Z,99527.56
2022-10-05T02:16:33.353Z,99532.50
2022-10-05T02:19:37.632Z,99534.09
2022-10-05T02:22:29.805Z,99536.25
2022-10-05T02:25:19.684Z,99534.25
2022-10-05T02:28:33.487Z,99539.41
2022-10-05T02:31:27.727Z,99535.81
2022-10-05T02:34:25.884Z,99536.41
2022-10-05T02:37:30.259Z,99539.97
2022-10-05T02:40:57.887Z,99536.63
2022-10-05T02:44:20.548Z,99542.75
2022-10-05T02:47:21.666Z,99547.09
2022-10-05T02:50:12.322Z,99551.22
2022-10-05T02:53:19.272Z,99556.97
2022-10-05T02:56:46.654Z,99555.16
2022-10-05T02:59:38.496Z,99568.59
2022-10-05T03:02:41.100Z,99561.09
2022-10-05T03:05:30.225Z,99567.03
2022-10-05T03:08:24.387Z,99569.00
2022-10-05T03:11:40.212Z,99571.59
2022-10-05T03:14:45.904Z,99577.69
2022-10-05T03:17:44.924Z,99575.34
2022-10-05T03:20:32.516Z,99583.41
2022-10-05T03:23:33.090Z,99577.50
2022-10-05T03:26:38.976Z,99576.50
2022-10-05T03:29:29.083Z,99575.72
2022-10-05T03:32:25.188Z,99580.09
2022-10-05T03:35:19.327Z,99583.84
2022-10-05T03:38:38.796Z,99579.09
2022-10-05T03:41:34.233Z,99580.88
2022-10-05T03:44:34.118Z,99574.00
2022-10-05T03:47:18.934Z,99578.16
2022-10-05T03:50:11.450Z,99585.69
2022-10-05T03:53:03.307Z,99580.56
2022-10-05T03:56:29.973Z,99583.91
2022-10-05T03:59:21.988Z,99594.38
2022-10-05T04:02:22.287Z,99588.50
2022-10-05T04:05:10.539Z,99603.09
2022-10-05T04:07:56.087Z,99611.19
2022-10-05T04:10:46.622Z,99612.34
2022-10-05T04:13:57.515Z,99619.81
2022-10-05T04:16:49.069Z,99624.75
2022-10-05T04:19:41.024Z,99633.22
2022-10-05T04:22:41.180Z,99635.97
2022-10-05T04:25:31.658Z,99636.75
2022-10-05T04:28:31.961Z,99636.16
2022-10-05T04:32:00.191Z,99651.97
2022-10-05T04:35:04.616Z,99655.72
2022-10-05T04:38:20.196Z,99661.66
2022-10-05T04:41:20.453Z,99658.84
2022-10-05T04:44:57.014Z,99663.81
2022-10-05T04:48:02.110Z,99659.47
2022-10-05T04:51:08.004Z,99654.94
2022-10-05T04:54:23.435Z,99663.22
2022-10-05T04:57:36.767Z,99664.22
2022-10-05T05:00:23.359Z,99670.16
2022-10-05T05:03:37.068Z,99668.16
2022-10-05T05:06:49.797Z,99671.72
2022-10-05T05:09:53.610Z,99672.50
2022-10-05T05:12:47.917Z,99676.44
2022-10-05T05:15:57.000Z,99681.97
2022-10-05T05:19:28.141Z,99686.91
2022-10-05T05:22:45.618Z,99695.97
2022-10-05T05:25:57.049Z,99701.91
2022-10-05T05:28:54.172Z,99708.78
2022-10-05T05:32:02.965Z,99708.19
2022-10-05T05:35:30.678Z,99711.34
2022-10-05T05:38:31.202Z,99721.84
2022-10-05T05:45:50.596Z,99724.59
2022-10-05T05:48:57.648Z,99713.75
2022-10-05T05:56:09.039Z,99732.09
2022-10-05T05:59:29.334Z,99738.22
2022-10-05T06:02:25.314Z,99731.91
2022-10-05T06:05:34.362Z,99754.81
2022-10-05T06:08:45.226Z,99746.91
2022-10-05T06:11:51.749Z,99730.31
2022-10-05T06:14:52.177Z,99742.16
2022-10-05T06:17:49.755Z,99739.38
2022-10-05T06:20:45.104Z,99750.63
2022-10-05T06:23:51.368Z,99758.91
2022-10-05T06:27:23.882Z,99748.78
2022-10-05T06:30:13.332Z,99766.69
2022-10-05T06:33:42.362Z,99762.31
2022-10-05T06:36:42.515Z,99774.78
2022-10-05T06:39:58.697Z,99766.47
2022-10-05T06:43:12.967Z,99772.91
2022-10-05T06:46:39.126Z,99773.50
2022-10-05T06:50:42.788Z,99767.66
2022-10-05T06:54:07.180Z,99760.41
2022-10-05T06:57:12.083Z,99767.09
2022-10-05T07:00:17.721Z,99773.75
2022-10-05T07:07:10.556Z,99774.28
2022-10-05T07:10:23.953Z,99782.25
2022-10-05T07:13:35.595Z,99780.63
2022-10-05T07:16:45.324Z,99794.91
2022-10-05T07:20:25.272Z,99798.25
2022-10-05T07:23:19.305Z,99798.84
2022-10-05T07:26:22.541Z,99785.13
2022-10-05T07:29:07.449Z,99790.63
2022-10-05T07:32:23.931Z,99789.78
2022-10-05T07:35:52.685Z,99800.94
2022-10-05T07:39:23.524Z,99792.28
2022-10-05T07:42:18.454Z,99780.78
2022-10-05T07:45:26.091Z,99789.28
2022-10-05T07:48:23.442Z,99779.09
2022-10-05T07:51:38.071Z,99765.75
2022-10-05T07:54:34.905Z,99761.38
2022-10-05T07:57:32.550Z,99760.19
2022-10-05T08:00:21.802Z,99764.38
2022-10-05T08:03:17.103Z,99779.09
2022-10-05T08:06:05.093Z,99779.22
2022-10-05T08:09:29.622Z,99779.13
2022-10-05T08:12:49.537Z,99788.44
2022-10-05T08:15:42.433Z,99798.22
2022-10-05T08:19:06.130Z,99792.56
2022-10-05T08:22:02.544Z,99792.97
2022-10-05T08:25:01.925Z,99801.81
2022-10-05T08:28:19.851Z,99807.09
2022-10-05T08:31:13.166Z,99804.09
2022-10-05T08:34:12.289Z,99804.81
2022-10-05T08:37:31.589Z,99795.91
2022-10-05T08:40:57.627Z,99796.91
2022-10-05T08:43:48.618Z,99796.56
2022-10-05T08:47:07.475Z,99800.50
2022-10-05T08:50:18.952Z,99810.47
2022-10-05T08:53:37.504Z,99822.88
2022-10-05T08:56:30.827Z,99812.31
2022-10-05T08:59:53.691Z,99822.16
2022-10-05T09:03:21.829Z,99818.78
2022-10-05T09:06:18.860Z,99819.44
2022-10-05T09:09:51.787Z,99827.50
2022-10-05T09:13:07.504Z,99815.72
2022-10-05T09:16:29.399Z,99816.75
2022-10-05T09:19:22.361Z,99819.59
2022-10-05T09:22:26.312Z,99819.78
2022-10-05T09:26:05.140Z,99813.13
2022-10-05T09:29:20.691Z,99811.88
2022-10-05T09:32:27.507Z,99803.75
2022-10-05T09:35:49.824Z,99806.47
2022-10-05T09:38:56.672Z,99801.56
2022-10-05T09:42:37.861Z,99811.28
2022-10-05T09:46:01.645Z,99796.97
2022-10-05T09:49:12.950Z,99811.94
2022-10-05T09:52:19.693Z,99818.78
2022-10-05T09:55:45.709Z,99821.78
2022-10-05T09:59:06.943Z,99823.31
2022-10-05T10:02:20.667Z,99821.88
2022-10-05T10:05:51.303Z,99826.28
2022-10-05T10:08:44.586Z,99815.78
2022-10-05T10:12:07.237Z,99822.44
2022-10-05T10:15:12.930Z,99827.44
2022-10-05T10:18:23.627Z,99814.44
2022-10-05T10:21:35.191Z,99829.53
2022-10-05T10:24:47.691Z,99820.81
2022-10-05T10:27:52.444Z,99813.13
2022-10-05T10:31:02.703Z,99807.41
2022-10-05T10:34:03.036Z,99810.53
2022-10-05T10:37:10.466Z,99806.81
2022-10-05T10:40:26.347Z,99814.00
2022-10-05T10:43:44.943Z,99816.25
2022-10-05T10:46:40.063Z,99809.69
2022-10-05T10:49:45.490Z,99802.94
2022-10-05T10:52:58.461Z,99800.00
2022-10-05T10:56:02.658Z,99796.88
2022-10-05T10:58:56.705Z,99804.34
2022-10-05T11:02:21.183Z,99793.78
2022-10-05T11:05:27.660Z,99802.72
2022-10-05T11:08:37.917Z,99803.25
2022-10-05T11:11:35.630Z,99805.97
2022-10-05T11:14:33.228Z,99792.75
2022-10-05T11:17:47.235Z,99802.69
2022-10-05T11:20:44.117Z,99795.38
2022-10-05T11:23:56.760Z,99787.41
2022-10-05T11:26:52.917Z,99792.44
2022-10-05T11:30:01.287Z,99784.94
2022-10-05T11:33:24.084Z,99788.69
2022-10-05T11:36:57.151Z,99792.59
2022-10-05T11:40:00.467Z,99791.72
2022-10-05T11:43:14.960Z,99796.84
2022-10-05T11:46:22.917Z,99802.09
2022-10-05T11:49:29.837Z,99807.72
2022-10-05T11:52:31.575Z,99811.50
2022-10-05T11:55:35.829Z,99803.38
2022-10-05T11:58:39.290Z,99819.47
2022-10-05T12:02:14.054Z,99816.19
2022-10-05T12:05:15.943Z,99822.09
2022-10-05T12:08:12.965Z,99820.81
2022-10-05T12:11:33.136Z,99826.91
2022-10-05T12:14:34.237Z,99832.72
2022-10-05T12:17:46.150Z,99826.13
2022-10-05T12:20:45.874Z,99840.31
2022-10-05T12:23:39.463Z,99840.38
2022-10-05T12:26:29.049Z,99839.63
2022-10-05T12:29:17.525Z,99847.06
2022-10-05T12:32:17.877Z,99840.53
2022-10-05T12:35:46.781Z,99848.53
2022-10-05T12:38:57.610Z,99856.31
2022-10-05T12:42:25.425Z,99846.75
2022-10-05T12:45:10.068Z,99844.59
2022-10-05T12:48:26.175Z,99836.06
2022-10-05T12:51:31.359Z,99839.38
2022-10-05T12:54:34.359Z,99835.75
2022-10-05T12:57:35.540Z,99828.38
2022-10-05T13:00:23.111Z,99820.78
2022-10-05T13:03:24.010Z,99827.66
2022-10-05T13:06:41.489Z,99828.09
2022-10-05T13:09:42.739Z,99820.91
2022-10-05T13:12:48.167Z,99828.91
2022-10-05T13:15:40.799Z,99822.31
2022-10-05T13:18:53.859Z,99815.53
2022-10-05T13:22:16.388Z,99812.19
2022-10-05T13:25:08.615Z,99815.63
2022-10-05T13:28:30.551Z,99807.59
2022-10-05T13:31:23.248Z,99797.16
2022-10-05T13:34:57.976Z,99815.31
2022-10-05T13:38:01.199Z,99811.63
2022-10-05T13:41:02.707Z,99813.19
2022-10-05T13:44:20.173Z,99809.69
2022-10-05T13:47:32.531Z,99806.81
2022-10-05T13:50:31.203Z,99810.25
2022-10-05T13:53:19.005Z,99813.66
2022-10-05T13:56:24.391Z,99807.50
2022-10-05T13:59:46.352Z,99799.81
2022-10-05T14:02:38.728Z,99793.97
2022-10-05T14:05:24.744Z,99796.34
2022-10-05T14:08:16.901Z,99800.75
2022-10-05T14:11:32.055Z,99798.44
2022-10-05T14:14:27.655Z,99797.09
2022-10-05T14:17:33.250Z,99788.94
2022-10-05T14:20:23.757Z,99791.06
2022-10-05T14:23:23.866Z,99785.72
2022-10-05T14:26:25.837Z,99798.75
2022-10-05T14:29:17.645Z,99783.63
2022-10-05T14:32:29.191Z,99790.66
2022-10-05T14:35:16.924Z,99788.47
2022-10-05T14:38:16.634Z,99790.69
2022-10-05T14:41:07.254Z,99789.47
2022-10-05T14:44:12.587Z,99783.00
2022-10-05T14:47:11.423Z,99792.72
2022-10-05T14:50:25.499Z,99793.34
2022-10-05T14:53:18.183Z,99793.56
2022-10-05T14:56:32.639Z,99802.28
2022-10-05T14:59:32.051Z,99798.22
2022-10-05T15:02:30.900Z,99797.91
2022-10-05T15:05:24.198Z,99794.19
2022-10-05T15:08:50.515Z,99794.09
2022-10-05T15:11:46.068Z,99793.97
2022-10-05T15:14:39.464Z,99794.91
2022-10-05T15:17:40.462Z,99791.34
2022-10-05T15:20:45.883Z,99788.50
2022-10-05T15:23:30.846Z,99799.44
2022-10-05T15:26:45.836Z,99798.91
2022-10-05T15:29:41.814Z,99796.53
2022-10-05T15:32:45.555Z,99793.63
2022-10-05T15:36:04.086Z,99793.97
2022-10-05T15:39:13.504Z,99794.81
2022-10-05T15:42:47.908Z,99800.59
2022-10-05T15:45:34.541Z,99802.22
2022-10-05T15:48:48.006Z,99793.06
2022-10-05T15:51:59.711Z,99790.31
2022-10-05T15:55:10.786Z,99798.44
2022-10-05T15:58:07.740Z,99789.00
2022-10-05T16:01:12.646Z,99783.91
2022-10-05T16:04:22.488Z,99782.31
2022-10-05T16:07:35.136Z,99781.19
2022-10-05T16:10:23.409Z,99777.81
2022-10-05T16:13:26.477Z,99782.75
2022-10-05T16:16:24.333Z,99785.53
2022-10-05T16:19:19.741Z,99783.19
2022-10-05T16:22:21.629Z,99790.94
2022-10-05T16:25:27.985Z,99794.50
2022-10-05T16:28:46.965Z,99786.44
2022-10-05T16:31:51.815Z,99784.47
2022-10-05T16:34:39.552Z,99783.09
2022-10-05T16:37:34.786Z,99789.50
2022-10-05T16:40:45.867Z,99786.56
2022-10-05T16:43:48.955Z,99786.19
2022-10-05T16:46:33.696Z,99792.19
2022-10-05T16:49:46.887Z,99802.19
2022-10-05T16:52:33.402Z,99788.53
2022-10-05T16:55:29.039Z,99794.91
2022-10-05T16:58:25.054Z,99792.19
2022-10-05T17:01:30.081Z,99778.78
2022-10-05T17:04:23.878Z,99782.22
2022-10-05T17:07:34.099Z,99785.59
2022-10-05T17:10:56.324Z,99792.16
2022-10-05T17:14:00.460Z,99795.94
2022-10-05T17:17:22.808Z,99799.66
2022-10-05T17:20:23.120Z,99805.19
2022-10-05T17:23:30.617Z,99800.81
2022-10-05T17:26:38.225Z,99798.66
2022-10-05T17:29:27.693Z,99798.47
2022-10-05T17:32:15.725Z,99793.31
2022-10-05T17:35:00.986Z,99795.91
2022-10-05T17:38:13.709Z,99778.19
2022-10-05T17:41:18.452Z,99789.09
2022-10-05T17:44:06.532Z,99810.31
2022-10-05T17:46:53.516Z,99810.31
2022-10-05T17:50:22.483Z,99807.13
2022-10-05T17:54:05.145Z,99816.88
2022-10-05T17:57:09.985Z,99823.44
2022-10-05T17:59:57.300Z,99821.88
2022-10-05T18:02:43.263Z,99813.34
2022-10-05T18:05:29.692Z,99819.50
2022-10-05T18:08:15.891Z,99823.50
2022-10-05T18:11:11.681Z,99825.13
2022-10-05T18:14:18.505Z,99827.13
2022-10-05T18:17:11.599Z,99816.81
2022-10-05T18:20:14.754Z,99814.03
2022-10-05T18:23:02.542Z,99802.53
2022-10-05T18:26:05.850Z,99794.81
2022-10-05T18:29:13.205Z,99791.22
2022-10-05T18:32:06.996Z,99793.00
2022-10-05T18:35:07.515Z,99795.22
2022-10-05T18:38:19.037Z,99788.47
2022-10-05T18:41:22.215Z,99797.19
2022-10-05T18:44:17.412Z,99781.97
2022-10-05T18:47:44.530Z,99788.09
2022-10-05T18:50:43.415Z,99790.09
2022-10-05T18:53:56.025Z,99798.03
2022-10-05T18:56:47.953Z,99792.88
2022-10-05T18:59:53.342Z,99789.50
2022-10-05T19:02:44.171Z,99786.34
2022-10-05T19:05:47.918Z,99787.91
2022-10-05T19:08:41.740Z,99794.88
2022-10-05T19:11:55.959Z,99794.88
2022-10-05T19:15:18.383Z,99789.50
2022-10-05T19:18:18.635Z,99793.66
2022-10-05T19:21:12.795Z,99796.25
2022-10-05T19:24:13.287Z,99793.66
2022-10-05T19:27:16.313Z,99800.41
2022-10-05T19:30:23.003Z,99795.44
2022-10-05T19:33:30.739Z,99795.81
2022-10-05T19:36:43.632Z,99796.63
2022-10-05T19:39:49.753Z,99789.91
2022-10-05T19:42:44.460Z,99793.25
2022-10-05T19:45:36.059Z,99785.75
2022-10-05T19:48:26.941Z,99789.91
2022-10-05T19:51:28.737Z,99800.00
2022-10-05T19:54:25.147Z,99804.34
2022-10-05T19:57:18.811Z,99803.13
2022-10-05T20:00:04.058Z,99799.56
2022-10-05T20:02:50.227Z,99792.63
2022-10-05T20:05:35.188Z,99797.38
2022-10-05T20:08:22.085Z,99793.59
2022-10-05T20:11:19.098Z,99791.22
2022-10-05T20:14:05.658Z,99789.78
2022-10-05T20:17:48.859Z,99788.00
2022-10-05T20:20:33.633Z,99791.94
2022-10-05T20:23:29.837Z,99796.88
2022-10-05T20:27:00.243Z,99807.75
2022-10-05T20:29:45.079Z,99803.19
2022-10-05T20:32:30.928Z,99795.69
2022-10-05T20:35:23.012Z,99800.41
2022-10-05T20:38:07.799Z,99793.25
2022-10-05T20:40:52.599Z,99785.50
2022-10-05T20:43:38.633Z,99793.25
2022-10-05T20:46:23.820Z,99792.81
2022-10-05T20:49:12.742Z,99801.13
2022-10-05T20:51:58.135Z,99797.56
2022-10-05T20:54:43.354Z,99796.91
2022-10-05T20:57:28.102Z,99805.03
2022-10-05T21:00:13.478Z,99798.84
2022-10-05T21:02:58.294Z,99789.72
2022-10-05T21:05:43.514Z,99784.56
2022-10-05T21:08:28.798Z,99780.75
2022-10-05T21:11:14.150Z,99781.88
2022-10-05T21:14:03.336Z,99787.84
2022-10-05T21:16:51.792Z,99786.75
2022-10-05T21:19:39.631Z,99785.78
2022-10-05T21:22:24.478Z,99800.16
2022-10-05T21:25:09.327Z,99797.38
2022-10-05T21:27:54.454Z,99792.00
2022-10-05T21:30:39.340Z,99788.28
2022-10-05T21:33:24.555Z,99782.78
2022-10-05T21:36:09.972Z,99781.19
2022-10-05T21:38:54.993Z,99784.19
2022-10-05T21:41:39.808Z,99786.06
2022-10-05T21:44:24.689Z,99800.03
2022-10-05T21:47:09.565Z,99788.63
2022-10-05T21:49:54.723Z,99788.88
2022-10-05T21:52:39.826Z,99794.69
2022-10-05T21:55:24.874Z,99797.47
2022-10-05T21:58:11.127Z,99789.53
2022-10-05T22:00:56.331Z,99785.38
2022-10-05T22:03:41.534Z,99785.59
2022-10-05T22:06:26.844Z,99788.38
2022-10-05T22:09:11.753Z,99791.34
2022-10-05T22:11:56.916Z,99791.16
2022-10-05T22:14:41.715Z,99786.84
2022-10-05T22:17:31.128Z,99786.13
2022-10-05T22:20:16.461Z,99777.22
2022-10-05T22:23:01.312Z,99775.66
2022-10-05T22:25:47.439Z,99778.88
2022-10-05T22:28:33.603Z,99778.31
2022-10-05T22:31:18.769Z,99773.34
2022-10-05T22:34:03.625Z,99775.56
2022-10-05T22:36:48.947Z,99765.88
2022-10-05T22:39:33.412Z,99766.28
2022-10-05T22:42:18.617Z,99773.28
2022-10-05T22:45:04.689Z,99776.44
2022-10-05T22:47:49.651Z,99777.06
2022-10-05T22:50:34.822Z,99776.50
2022-10-05T22:53:19.552Z,99772.72
2022-10-05T22:56:11.748Z,99774.09
2022-10-05T22:58:57.243Z,99779.06
2022-10-05T23:01:42.336Z,99782.78
2022-10-05T23:04:27.391Z,99771.09
2022-10-05T23:07:12.252Z,99771.28
2022-10-05T23:09:57.117Z,99778.41
2022-10-05T23:12:42.659Z,99774.03
2022-10-05T23:15:28.123Z,99774.25
2022-10-05T23:18:16.112Z,99772.88
2022-10-05T23:21:01.616Z,99776.28
2022-10-05T23:23:48.447Z,99774.34
2022-10-05T23:26:34.282Z,99785.44
2022-10-05T23:29:19.141Z,99775.56
2022-10-05T23:32:04.251Z,99774.19
2022-10-05T23:34:48.992Z,99770.41
2022-10-05T23:37:38.900Z,99768.28
2022-10-05T23:40:23.779Z,99769.50
2022-10-05T23:43:08.662Z,99780.19
2022-10-05T23:45:54.261Z,99766.13
2022-10-05T23:48:39.312Z,99774.81
2022-10-05T23:51:24.068Z,99762.50
2022-10-05T23:54:09.011Z,99758.72
2022-10-05T23:56:53.881Z,99759.13
2022-10-05T23:59:38.977Z,99754.22
